CHH7092 ZPPP-ZJHK
Flight info
| Callsign | CHH7092 |
|---|---|
| Flight time | 1h 28m |
| Altitude | 31100 |
| Route | LXI4Q/22R LXI A599 BSE R339 BHY W70 NYB |
| Aircraft | B738/M-SDE2E3FGHIRWXY/LB2 |
Departure
| Time | 2026-04-27 12:58 |
|---|---|
| Airport | Kunming Changshui International Airport (ZPPP) |
Arrival
| Time | 2026-04-27 14:27 |
|---|---|
| Airport | Haikou Meilan International Airport (ZJHK) |
| Time | Latitude | Longitude | Altitude | Speed | Heading |
|---|---|---|---|---|---|
| 2026-04-27 12:42 | 25.10393 | 102.93251 | 6897 ft | 0 kts | 187° |
| 2026-04-27 12:47 | 25.10404 | 102.93253 | 6897 ft | 3 kts | 184° |
| 2026-04-27 12:47 | 25.10424 | 102.93254 | 6898 ft | 3 kts | 176° |
| 2026-04-27 12:47 | 25.10444 | 102.93251 | 6898 ft | 3 kts | 168° |
| 2026-04-27 12:47 | 25.10464 | 102.93245 | 6898 ft | 3 kts | 157° |
| 2026-04-27 12:48 | 25.10481 | 102.93235 | 6898 ft | 3 kts | 137° |
| 2026-04-27 12:48 | 25.10491 | 102.93220 | 6898 ft | 3 kts | 97° |
| 2026-04-27 12:48 | 25.10492 | 102.93213 | 6898 ft | 0 kts | 82° |
| 2026-04-27 12:50 | 25.10494 | 102.93227 | 6898 ft | 4 kts | 82° |
| 2026-04-27 12:51 | 25.10492 | 102.93275 | 6897 ft | 9 kts | 97° |
| 2026-04-27 12:51 | 25.10513 | 102.93345 | 6896 ft | 12 kts | 47° |
| 2026-04-27 12:51 | 25.10587 | 102.93412 | 6896 ft | 16 kts | 38° |
| 2026-04-27 12:51 | 25.10678 | 102.93492 | 6896 ft | 15 kts | 44° |
| 2026-04-27 12:52 | 25.10665 | 102.93593 | 6895 ft | 12 kts | 130° |
| 2026-04-27 12:52 | 25.10604 | 102.93676 | 6894 ft | 16 kts | 128° |
| 2026-04-27 12:52 | 25.10529 | 102.93781 | 6893 ft | 19 kts | 129° |
| 2026-04-27 12:52 | 25.10443 | 102.93899 | 6893 ft | 17 kts | 128° |
| 2026-04-27 12:53 | 25.10581 | 102.94106 | 6892 ft | 22 kts | 37° |
| 2026-04-27 12:53 | 25.10708 | 102.94219 | 6891 ft | 25 kts | 39° |
| 2026-04-27 12:53 | 25.10851 | 102.94342 | 6891 ft | 27 kts | 39° |
| 2026-04-27 12:54 | 25.10972 | 102.94448 | 6890 ft | 21 kts | 38° |
| 2026-04-27 12:54 | 25.11090 | 102.94551 | 6890 ft | 22 kts | 38° |
| 2026-04-27 12:54 | 25.11213 | 102.94657 | 6889 ft | 23 kts | 38° |
| 2026-04-27 12:54 | 25.11340 | 102.94768 | 6889 ft | 23 kts | 38° |
| 2026-04-27 12:55 | 25.11463 | 102.94875 | 6889 ft | 22 kts | 38° |
| 2026-04-27 12:55 | 25.11586 | 102.94982 | 6888 ft | 23 kts | 38° |
| 2026-04-27 12:55 | 25.11714 | 102.95094 | 6887 ft | 24 kts | 38° |
| 2026-04-27 12:55 | 25.11846 | 102.95209 | 6887 ft | 25 kts | 38° |
| 2026-04-27 12:56 | 25.11928 | 102.95324 | 6887 ft | 18 kts | 103° |
| 2026-04-27 12:56 | 25.11878 | 102.95400 | 6887 ft | 9 kts | 128° |
| 2026-04-27 12:56 | 25.11838 | 102.95456 | 6887 ft | 10 kts | 128° |
| 2026-04-27 12:56 | 25.11785 | 102.95508 | 6886 ft | 11 kts | 169° |
| 2026-04-27 12:57 | 25.11749 | 102.95491 | 6886 ft | 0 kts | 219° |
| 2026-04-27 12:57 | 25.11663 | 102.95413 | 6887 ft | 41 kts | 219° |
| 2026-04-27 12:57 | 25.11293 | 102.95093 | 6889 ft | 93 kts | 218° |
| 2026-04-27 12:57 | 25.10664 | 102.94546 | 6890 ft | 135 kts | 218° |
| 2026-04-27 12:58 | 25.09829 | 102.93828 | 6901 ft | 168 kts | 217° |
| 2026-04-27 12:58 | 25.08891 | 102.93024 | 7353 ft | 166 kts | 218° |
| 2026-04-27 12:58 | 25.07964 | 102.92211 | 7839 ft | 177 kts | 219° |
| 2026-04-27 12:58 | 25.06980 | 102.91347 | 8140 ft | 191 kts | 221° |
| 2026-04-27 12:59 | 25.05930 | 102.90431 | 8541 ft | 195 kts | 220° |
| 2026-04-27 12:59 | 25.04840 | 102.89500 | 8909 ft | 201 kts | 220° |
| 2026-04-27 12:59 | 25.03561 | 102.88816 | 9229 ft | 216 kts | 187° |
| 2026-04-27 12:59 | 25.02086 | 102.89230 | 9655 ft | 228 kts | 156° |
| 2026-04-27 13:00 | 25.00657 | 102.90099 | 10017 ft | 240 kts | 155° |
| 2026-04-27 13:00 | 24.99162 | 102.91036 | 10305 ft | 253 kts | 155° |
| 2026-04-27 13:00 | 24.97588 | 102.92017 | 10587 ft | 268 kts | 154° |
| 2026-04-27 13:00 | 24.95922 | 102.93048 | 11002 ft | 279 kts | 155° |
| 2026-04-27 13:01 | 24.94193 | 102.94111 | 11476 ft | 289 kts | 155° |
| 2026-04-27 13:01 | 24.92403 | 102.95206 | 11934 ft | 300 kts | 155° |
| 2026-04-27 13:01 | 24.90549 | 102.96334 | 12431 ft | 309 kts | 155° |
| 2026-04-27 13:01 | 24.88634 | 102.97498 | 12947 ft | 319 kts | 155° |
| 2026-04-27 13:02 | 24.86663 | 102.98694 | 13504 ft | 326 kts | 155° |
| 2026-04-27 13:02 | 24.84677 | 102.99897 | 14048 ft | 334 kts | 155° |
| 2026-04-27 13:02 | 24.82618 | 103.01141 | 14561 ft | 342 kts | 155° |
| 2026-04-27 13:02 | 24.80526 | 103.02442 | 15053 ft | 349 kts | 149° |
| 2026-04-27 13:03 | 24.78783 | 103.04320 | 15540 ft | 355 kts | 127° |
| 2026-04-27 13:03 | 24.77681 | 103.06762 | 16105 ft | 358 kts | 114° |
| 2026-04-27 13:03 | 24.76775 | 103.09333 | 16613 ft | 362 kts | 112° |
| 2026-04-27 13:03 | 24.75906 | 103.11929 | 17210 ft | 362 kts | 112° |
| 2026-04-27 13:04 | 24.75047 | 103.14509 | 17837 ft | 366 kts | 112° |
| 2026-04-27 13:04 | 24.74144 | 103.17193 | 18455 ft | 370 kts | 112° |
| 2026-04-27 13:04 | 24.73231 | 103.19876 | 18708 ft | 377 kts | 113° |
| 2026-04-27 13:04 | 24.72306 | 103.22569 | 18728 ft | 377 kts | 113° |
| 2026-04-27 13:05 | 24.71364 | 103.25290 | 18771 ft | 387 kts | 113° |
| 2026-04-27 13:05 | 24.70377 | 103.28124 | 18887 ft | 404 kts | 113° |
| 2026-04-27 13:05 | 24.69356 | 103.31051 | 19141 ft | 415 kts | 113° |
| 2026-04-27 13:05 | 24.68313 | 103.34040 | 19571 ft | 421 kts | 113° |
| 2026-04-27 13:06 | 24.67278 | 103.37008 | 20122 ft | 421 kts | 113° |
| 2026-04-27 13:06 | 24.66227 | 103.40020 | 20667 ft | 423 kts | 113° |
| 2026-04-27 13:06 | 24.65171 | 103.43044 | 21154 ft | 426 kts | 112° |
| 2026-04-27 13:06 | 24.64101 | 103.46102 | 21604 ft | 429 kts | 113° |
| 2026-04-27 13:07 | 24.63024 | 103.49177 | 22091 ft | 432 kts | 113° |
| 2026-04-27 13:07 | 24.61940 | 103.52269 | 22556 ft | 435 kts | 112° |
| 2026-04-27 13:07 | 24.60849 | 103.55381 | 23032 ft | 438 kts | 112° |
| 2026-04-27 13:07 | 24.59751 | 103.58512 | 23485 ft | 440 kts | 112° |
| 2026-04-27 13:08 | 24.58655 | 103.61633 | 23863 ft | 443 kts | 112° |
| 2026-04-27 13:08 | 24.57543 | 103.64797 | 24243 ft | 445 kts | 112° |
| 2026-04-27 13:08 | 24.56425 | 103.67977 | 24622 ft | 446 kts | 112° |
| 2026-04-27 13:08 | 24.55303 | 103.71165 | 24990 ft | 448 kts | 112° |
| 2026-04-27 13:09 | 24.54183 | 103.74369 | 25333 ft | 451 kts | 111° |
| 2026-04-27 13:09 | 24.53257 | 103.77666 | 25670 ft | 454 kts | 105° |
| 2026-04-27 13:09 | 24.52512 | 103.81053 | 26021 ft | 456 kts | 103° |
| 2026-04-27 13:09 | 24.51843 | 103.84475 | 26377 ft | 458 kts | 102° |
| 2026-04-27 13:10 | 24.51188 | 103.87902 | 26726 ft | 460 kts | 102° |
| 2026-04-27 13:10 | 24.50513 | 103.91355 | 27068 ft | 462 kts | 103° |
| 2026-04-27 13:10 | 24.49818 | 103.94805 | 27401 ft | 463 kts | 103° |
| 2026-04-27 13:10 | 24.49113 | 103.98208 | 27729 ft | 465 kts | 103° |
| 2026-04-27 13:11 | 24.48381 | 104.01677 | 28045 ft | 467 kts | 103° |
| 2026-04-27 13:11 | 24.47639 | 104.05148 | 28375 ft | 468 kts | 104° |
| 2026-04-27 13:11 | 24.46893 | 104.08629 | 28692 ft | 469 kts | 103° |
| 2026-04-27 13:11 | 24.46140 | 104.12130 | 28970 ft | 471 kts | 103° |
| 2026-04-27 13:12 | 24.45386 | 104.15634 | 29328 ft | 471 kts | 103° |
| 2026-04-27 13:12 | 24.44634 | 104.19128 | 29730 ft | 470 kts | 103° |
| 2026-04-27 13:12 | 24.43882 | 104.22619 | 30130 ft | 469 kts | 103° |
| 2026-04-27 13:12 | 24.43133 | 104.26096 | 30493 ft | 467 kts | 103° |
| 2026-04-27 13:13 | 24.42386 | 104.29561 | 30871 ft | 465 kts | 103° |
| 2026-04-27 13:13 | 24.41647 | 104.32983 | 30991 ft | 467 kts | 103° |
| 2026-04-27 13:13 | 24.40154 | 104.39888 | 30993 ft | 464 kts | 103° |
| 2026-04-27 13:14 | 24.38661 | 104.46776 | 30995 ft | 464 kts | 104° |
| 2026-04-27 13:14 | 24.37163 | 104.53669 | 30984 ft | 464 kts | 104° |
| 2026-04-27 13:15 | 24.35663 | 104.60560 | 30975 ft | 465 kts | 104° |
| 2026-04-27 13:15 | 24.34156 | 104.67465 | 30974 ft | 466 kts | 104° |
| 2026-04-27 13:16 | 24.32645 | 104.74372 | 30955 ft | 466 kts | 104° |
| 2026-04-27 13:16 | 24.31384 | 104.80124 | 30953 ft | 467 kts | 104° |
| 2026-04-27 13:17 | 24.29614 | 104.88179 | 30942 ft | 468 kts | 104° |
| 2026-04-27 13:17 | 24.28087 | 104.95112 | 30936 ft | 468 kts | 104° |
| 2026-04-27 13:18 | 24.26555 | 105.02050 | 30938 ft | 469 kts | 104° |
| 2026-04-27 13:18 | 24.25278 | 105.07827 | 30929 ft | 469 kts | 104° |
| 2026-04-27 13:19 | 24.23739 | 105.14772 | 30937 ft | 469 kts | 104° |
| 2026-04-27 13:19 | 24.22200 | 105.21699 | 30935 ft | 468 kts | 104° |
| 2026-04-27 13:20 | 24.20568 | 105.28609 | 30930 ft | 467 kts | 105° |
| 2026-04-27 13:20 | 24.18882 | 105.35484 | 30937 ft | 467 kts | 106° |
| 2026-04-27 13:21 | 24.17205 | 105.42348 | 30934 ft | 466 kts | 105° |
| 2026-04-27 13:21 | 24.15547 | 105.49173 | 30936 ft | 466 kts | 105° |
| 2026-04-27 13:22 | 24.13879 | 105.56037 | 30938 ft | 467 kts | 105° |
| 2026-04-27 13:22 | 24.12206 | 105.62905 | 30929 ft | 467 kts | 106° |
| 2026-04-27 13:23 | 24.10527 | 105.69780 | 30931 ft | 467 kts | 106° |
| 2026-04-27 13:23 | 24.09019 | 105.76706 | 30931 ft | 468 kts | 103° |
| 2026-04-27 13:24 | 24.07687 | 105.83691 | 30929 ft | 470 kts | 103° |
| 2026-04-27 13:24 | 24.06343 | 105.90652 | 30926 ft | 470 kts | 103° |
| 2026-04-27 13:25 | 24.04947 | 105.97696 | 30926 ft | 471 kts | 103° |
| 2026-04-27 13:25 | 24.03550 | 106.04660 | 30925 ft | 472 kts | 103° |
| 2026-04-27 13:26 | 24.02139 | 106.11674 | 30925 ft | 473 kts | 103° |
| 2026-04-27 13:26 | 24.00721 | 106.18716 | 30922 ft | 473 kts | 103° |
| 2026-04-27 13:27 | 23.99301 | 106.25751 | 30927 ft | 474 kts | 103° |
| 2026-04-27 13:27 | 23.97877 | 106.32794 | 30923 ft | 474 kts | 103° |
| 2026-04-27 13:28 | 23.96450 | 106.39830 | 30924 ft | 474 kts | 104° |
| 2026-04-27 13:28 | 23.95026 | 106.46838 | 30924 ft | 474 kts | 104° |
| 2026-04-27 13:29 | 23.93593 | 106.53870 | 30924 ft | 474 kts | 104° |
| 2026-04-27 13:29 | 23.91295 | 106.60561 | 30931 ft | 469 kts | 121° |
| 2026-04-27 13:30 | 23.87403 | 106.66170 | 30936 ft | 464 kts | 135° |
| 2026-04-27 13:30 | 23.82975 | 106.71270 | 30926 ft | 465 kts | 136° |
| 2026-04-27 13:31 | 23.78496 | 106.76419 | 30932 ft | 465 kts | 136° |
| 2026-04-27 13:31 | 23.74097 | 106.81536 | 30933 ft | 465 kts | 135° |
| 2026-04-27 13:32 | 23.69669 | 106.86716 | 30941 ft | 466 kts | 136° |
| 2026-04-27 13:32 | 23.65245 | 106.91891 | 30934 ft | 467 kts | 136° |
| 2026-04-27 13:33 | 23.60812 | 106.97070 | 30938 ft | 467 kts | 136° |
| 2026-04-27 13:33 | 23.56376 | 107.02243 | 30942 ft | 468 kts | 136° |
| 2026-04-27 13:34 | 23.51927 | 107.07428 | 30942 ft | 468 kts | 136° |
| 2026-04-27 13:34 | 23.47483 | 107.12601 | 30946 ft | 468 kts | 136° |
| 2026-04-27 13:35 | 23.43059 | 107.17745 | 30948 ft | 468 kts | 136° |
| 2026-04-27 13:35 | 23.38603 | 107.22920 | 30945 ft | 468 kts | 136° |
| 2026-04-27 13:36 | 23.34154 | 107.28082 | 30948 ft | 468 kts | 136° |
| 2026-04-27 13:36 | 23.29691 | 107.33255 | 30950 ft | 468 kts | 136° |
| 2026-04-27 13:37 | 23.25229 | 107.38420 | 30962 ft | 469 kts | 136° |
| 2026-04-27 13:37 | 23.20758 | 107.43593 | 30975 ft | 469 kts | 136° |
| 2026-04-27 13:38 | 23.16280 | 107.48767 | 30952 ft | 470 kts | 136° |
| 2026-04-27 13:38 | 23.11817 | 107.53919 | 30963 ft | 471 kts | 136° |
| 2026-04-27 13:39 | 23.07316 | 107.59110 | 30961 ft | 471 kts | 136° |
| 2026-04-27 13:39 | 23.02813 | 107.64297 | 30975 ft | 472 kts | 136° |
| 2026-04-27 13:40 | 22.98304 | 107.69486 | 30965 ft | 473 kts | 136° |
| 2026-04-27 13:40 | 22.93783 | 107.74688 | 30956 ft | 474 kts | 136° |
| 2026-04-27 13:41 | 22.89265 | 107.79882 | 30968 ft | 474 kts | 136° |
| 2026-04-27 13:41 | 22.84762 | 107.85053 | 30969 ft | 474 kts | 136° |
| 2026-04-27 13:42 | 22.80235 | 107.90247 | 30955 ft | 474 kts | 136° |
| 2026-04-27 13:42 | 22.75698 | 107.95447 | 30979 ft | 474 kts | 136° |
| 2026-04-27 13:43 | 22.71164 | 108.00638 | 30977 ft | 474 kts | 136° |
| 2026-04-27 13:43 | 22.66621 | 108.05835 | 30987 ft | 475 kts | 136° |
| 2026-04-27 13:44 | 22.62074 | 108.11032 | 30986 ft | 475 kts | 136° |
| 2026-04-27 13:44 | 22.57581 | 108.16222 | 30986 ft | 476 kts | 134° |
| 2026-04-27 13:45 | 22.55419 | 108.18929 | 30831 ft | 474 kts | 133° |
| 2026-04-27 13:45 | 22.53315 | 108.21660 | 30585 ft | 470 kts | 132° |
| 2026-04-27 13:45 | 22.51249 | 108.24374 | 30353 ft | 465 kts | 132° |
| 2026-04-27 13:45 | 22.49197 | 108.27066 | 30120 ft | 463 kts | 132° |
| 2026-04-27 13:46 | 22.47140 | 108.29747 | 29887 ft | 463 kts | 133° |
| 2026-04-27 13:46 | 22.45080 | 108.32416 | 29619 ft | 462 kts | 133° |
| 2026-04-27 13:46 | 22.43018 | 108.35074 | 29354 ft | 461 kts | 133° |
| 2026-04-27 13:46 | 22.40957 | 108.37725 | 29089 ft | 460 kts | 133° |
| 2026-04-27 13:47 | 22.38898 | 108.40370 | 28828 ft | 459 kts | 133° |
| 2026-04-27 13:47 | 22.36838 | 108.43014 | 28571 ft | 458 kts | 133° |
| 2026-04-27 13:47 | 22.34789 | 108.45644 | 28314 ft | 457 kts | 133° |
| 2026-04-27 13:47 | 22.32749 | 108.48260 | 28069 ft | 455 kts | 133° |
| 2026-04-27 13:48 | 22.30713 | 108.50872 | 27825 ft | 453 kts | 133° |
| 2026-04-27 13:48 | 22.28688 | 108.53468 | 27571 ft | 451 kts | 133° |
| 2026-04-27 13:48 | 22.26675 | 108.56047 | 27315 ft | 448 kts | 133° |
| 2026-04-27 13:48 | 22.24668 | 108.58618 | 27074 ft | 446 kts | 133° |
| 2026-04-27 13:49 | 22.22703 | 108.61134 | 26833 ft | 444 kts | 133° |
| 2026-04-27 13:49 | 22.20691 | 108.63708 | 26584 ft | 441 kts | 133° |
| 2026-04-27 13:49 | 22.18718 | 108.66231 | 26346 ft | 439 kts | 133° |
| 2026-04-27 13:49 | 22.16751 | 108.68746 | 26113 ft | 438 kts | 133° |
| 2026-04-27 13:50 | 22.14817 | 108.71218 | 25880 ft | 436 kts | 133° |
| 2026-04-27 13:50 | 22.12867 | 108.73709 | 25646 ft | 434 kts | 133° |
| 2026-04-27 13:50 | 22.10922 | 108.76192 | 25418 ft | 432 kts | 133° |
| 2026-04-27 13:50 | 22.08988 | 108.78670 | 25195 ft | 431 kts | 133° |
| 2026-04-27 13:51 | 22.07059 | 108.81143 | 24965 ft | 430 kts | 132° |
| 2026-04-27 13:51 | 22.05131 | 108.83617 | 24735 ft | 429 kts | 132° |
| 2026-04-27 13:51 | 22.03216 | 108.86073 | 24558 ft | 426 kts | 132° |
| 2026-04-27 13:51 | 22.01311 | 108.88515 | 24512 ft | 426 kts | 133° |
| 2026-04-27 13:52 | 21.99398 | 108.90965 | 24497 ft | 425 kts | 133° |
| 2026-04-27 13:52 | 21.97493 | 108.93403 | 24494 ft | 425 kts | 133° |
| 2026-04-27 13:52 | 21.95613 | 108.95809 | 24494 ft | 425 kts | 133° |
| 2026-04-27 13:52 | 21.93702 | 108.98253 | 24494 ft | 425 kts | 133° |
| 2026-04-27 13:53 | 21.89888 | 109.03128 | 24496 ft | 426 kts | 133° |
| 2026-04-27 13:53 | 21.87983 | 109.05562 | 24487 ft | 426 kts | 133° |
| 2026-04-27 13:53 | 21.86071 | 109.08002 | 24173 ft | 424 kts | 133° |
| 2026-04-27 13:54 | 21.84191 | 109.10406 | 23961 ft | 417 kts | 133° |
| 2026-04-27 13:54 | 21.82349 | 109.12776 | 23733 ft | 408 kts | 132° |
| 2026-04-27 13:54 | 21.80547 | 109.15102 | 23509 ft | 402 kts | 132° |
| 2026-04-27 13:54 | 21.78767 | 109.17399 | 23257 ft | 396 kts | 132° |
| 2026-04-27 13:55 | 21.77012 | 109.19663 | 23001 ft | 392 kts | 132° |
| 2026-04-27 13:55 | 21.75269 | 109.21908 | 22743 ft | 392 kts | 133° |
| 2026-04-27 13:55 | 21.73510 | 109.24170 | 22499 ft | 396 kts | 133° |
| 2026-04-27 13:55 | 21.71763 | 109.26417 | 22252 ft | 396 kts | 132° |
| 2026-04-27 13:56 | 21.69998 | 109.28688 | 21994 ft | 394 kts | 132° |
| 2026-04-27 13:56 | 21.68247 | 109.30940 | 21748 ft | 392 kts | 132° |
| 2026-04-27 13:56 | 21.66496 | 109.33190 | 21499 ft | 390 kts | 133° |
| 2026-04-27 13:56 | 21.64756 | 109.35426 | 21253 ft | 388 kts | 132° |
| 2026-04-27 13:57 | 21.63030 | 109.37643 | 21005 ft | 387 kts | 133° |
| 2026-04-27 13:57 | 21.61304 | 109.39858 | 20769 ft | 385 kts | 133° |
| 2026-04-27 13:57 | 21.59555 | 109.42035 | 20527 ft | 383 kts | 137° |
| 2026-04-27 13:57 | 21.57567 | 109.43909 | 20281 ft | 379 kts | 148° |
| 2026-04-27 13:58 | 21.55372 | 109.45375 | 20060 ft | 375 kts | 154° |
| 2026-04-27 13:58 | 21.53104 | 109.46757 | 19824 ft | 374 kts | 154° |
| 2026-04-27 13:58 | 21.50840 | 109.48120 | 19593 ft | 373 kts | 154° |
| 2026-04-27 13:58 | 21.48578 | 109.49490 | 19315 ft | 374 kts | 154° |
| 2026-04-27 13:59 | 21.46315 | 109.50873 | 19020 ft | 375 kts | 154° |
| 2026-04-27 13:59 | 21.44047 | 109.52269 | 18726 ft | 375 kts | 154° |
| 2026-04-27 13:59 | 21.41793 | 109.53662 | 18430 ft | 372 kts | 154° |
| 2026-04-27 13:59 | 21.39550 | 109.55049 | 18137 ft | 371 kts | 154° |
| 2026-04-27 14:00 | 21.37323 | 109.56426 | 17804 ft | 368 kts | 154° |
| 2026-04-27 14:00 | 21.35118 | 109.57789 | 17464 ft | 364 kts | 154° |
| 2026-04-27 14:00 | 21.32915 | 109.59097 | 17130 ft | 358 kts | 159° |
| 2026-04-27 14:00 | 21.30635 | 109.60010 | 16811 ft | 350 kts | 169° |
| 2026-04-27 14:01 | 21.28276 | 109.60485 | 16494 ft | 343 kts | 176° |
| 2026-04-27 14:01 | 21.25924 | 109.60826 | 16171 ft | 339 kts | 176° |
| 2026-04-27 14:01 | 21.23594 | 109.61143 | 15852 ft | 337 kts | 177° |
| 2026-04-27 14:01 | 21.21274 | 109.61458 | 15552 ft | 334 kts | 176° |
| 2026-04-27 14:02 | 21.18977 | 109.61774 | 15243 ft | 332 kts | 176° |
| 2026-04-27 14:02 | 21.16687 | 109.62094 | 14935 ft | 331 kts | 176° |
| 2026-04-27 14:02 | 21.14402 | 109.62418 | 14631 ft | 329 kts | 176° |
| 2026-04-27 14:02 | 21.12133 | 109.62743 | 14330 ft | 328 kts | 176° |
| 2026-04-27 14:03 | 21.09873 | 109.63067 | 14026 ft | 327 kts | 176° |
| 2026-04-27 14:03 | 21.07618 | 109.63392 | 13737 ft | 326 kts | 175° |
| 2026-04-27 14:03 | 21.05375 | 109.63716 | 13413 ft | 325 kts | 175° |
| 2026-04-27 14:03 | 21.03130 | 109.64040 | 13089 ft | 325 kts | 175° |
| 2026-04-27 14:04 | 21.00895 | 109.64363 | 12774 ft | 324 kts | 175° |
| 2026-04-27 14:04 | 20.98667 | 109.64686 | 12442 ft | 322 kts | 175° |
| 2026-04-27 14:04 | 20.96458 | 109.65005 | 12118 ft | 319 kts | 175° |
| 2026-04-27 14:04 | 20.94272 | 109.65322 | 11798 ft | 316 kts | 175° |
| 2026-04-27 14:05 | 20.92108 | 109.65634 | 11487 ft | 313 kts | 175° |
| 2026-04-27 14:05 | 20.89960 | 109.65945 | 11174 ft | 310 kts | 175° |
| 2026-04-27 14:05 | 20.87836 | 109.66251 | 10864 ft | 307 kts | 175° |
| 2026-04-27 14:05 | 20.85729 | 109.66556 | 10555 ft | 305 kts | 175° |
| 2026-04-27 14:06 | 20.84336 | 109.66757 | 10354 ft | 303 kts | 175° |
| 2026-04-27 14:06 | 20.81576 | 109.67155 | 9960 ft | 300 kts | 175° |
| 2026-04-27 14:06 | 20.79571 | 109.67444 | 9660 ft | 298 kts | 175° |
| 2026-04-27 14:06 | 20.77525 | 109.67739 | 9326 ft | 296 kts | 175° |
| 2026-04-27 14:07 | 20.76176 | 109.67933 | 9113 ft | 295 kts | 175° |
| 2026-04-27 14:07 | 20.73478 | 109.68322 | 8768 ft | 289 kts | 174° |
| 2026-04-27 14:07 | 20.71507 | 109.68607 | 8567 ft | 283 kts | 174° |
| 2026-04-27 14:07 | 20.69571 | 109.68886 | 8359 ft | 277 kts | 174° |
| 2026-04-27 14:08 | 20.67675 | 109.69159 | 8159 ft | 272 kts | 174° |
| 2026-04-27 14:08 | 20.65851 | 109.69422 | 7965 ft | 268 kts | 174° |
| 2026-04-27 14:08 | 20.64596 | 109.69602 | 7829 ft | 265 kts | 174° |
| 2026-04-27 14:08 | 20.62778 | 109.69864 | 7641 ft | 262 kts | 174° |
| 2026-04-27 14:09 | 20.60396 | 109.70206 | 7384 ft | 259 kts | 174° |
| 2026-04-27 14:09 | 20.58612 | 109.70462 | 7195 ft | 258 kts | 174° |
| 2026-04-27 14:09 | 20.57412 | 109.70635 | 7067 ft | 257 kts | 174° |
| 2026-04-27 14:09 | 20.55645 | 109.70888 | 6958 ft | 256 kts | 174° |
| 2026-04-27 14:10 | 20.53882 | 109.71141 | 6919 ft | 260 kts | 174° |
| 2026-04-27 14:10 | 20.52093 | 109.71398 | 6907 ft | 258 kts | 174° |
| 2026-04-27 14:10 | 20.50346 | 109.71823 | 6902 ft | 260 kts | 161° |
| 2026-04-27 14:10 | 20.48741 | 109.72731 | 6895 ft | 264 kts | 146° |
| 2026-04-27 14:11 | 20.47323 | 109.73907 | 6908 ft | 265 kts | 143° |
| 2026-04-27 14:11 | 20.45877 | 109.75177 | 6908 ft | 266 kts | 143° |
| 2026-04-27 14:11 | 20.44448 | 109.76441 | 6910 ft | 267 kts | 142° |
| 2026-04-27 14:11 | 20.43015 | 109.77707 | 6903 ft | 267 kts | 143° |
| 2026-04-27 14:12 | 20.41580 | 109.78968 | 6905 ft | 267 kts | 143° |
| 2026-04-27 14:12 | 20.40146 | 109.80223 | 6905 ft | 267 kts | 143° |
| 2026-04-27 14:12 | 20.38709 | 109.81478 | 6860 ft | 267 kts | 143° |
| 2026-04-27 14:12 | 20.37298 | 109.82707 | 6729 ft | 262 kts | 143° |
| 2026-04-27 14:13 | 20.35905 | 109.83919 | 6601 ft | 257 kts | 143° |
| 2026-04-27 14:13 | 20.34515 | 109.85126 | 6492 ft | 259 kts | 143° |
| 2026-04-27 14:13 | 20.33111 | 109.86344 | 6380 ft | 260 kts | 143° |
| 2026-04-27 14:13 | 20.31707 | 109.87560 | 6258 ft | 261 kts | 143° |
| 2026-04-27 14:14 | 20.30291 | 109.88788 | 6149 ft | 263 kts | 143° |
| 2026-04-27 14:14 | 20.28867 | 109.90020 | 6021 ft | 265 kts | 143° |
| 2026-04-27 14:14 | 20.27440 | 109.91257 | 5896 ft | 262 kts | 143° |
| 2026-04-27 14:14 | 20.26035 | 109.92473 | 5771 ft | 258 kts | 143° |
| 2026-04-27 14:15 | 20.24646 | 109.93677 | 5651 ft | 256 kts | 143° |
| 2026-04-27 14:15 | 20.23262 | 109.94873 | 5520 ft | 256 kts | 143° |
| 2026-04-27 14:15 | 20.21899 | 109.96052 | 5405 ft | 255 kts | 143° |
| 2026-04-27 14:15 | 20.20524 | 109.97241 | 5288 ft | 254 kts | 143° |
| 2026-04-27 14:16 | 20.19155 | 109.98425 | 5159 ft | 254 kts | 143° |
| 2026-04-27 14:16 | 20.17785 | 109.99609 | 5045 ft | 253 kts | 143° |
| 2026-04-27 14:16 | 20.16418 | 110.00790 | 4952 ft | 253 kts | 143° |
| 2026-04-27 14:16 | 20.15056 | 110.01967 | 4905 ft | 252 kts | 143° |
| 2026-04-27 14:17 | 20.13698 | 110.03140 | 4908 ft | 251 kts | 143° |
| 2026-04-27 14:17 | 20.12336 | 110.04316 | 4917 ft | 254 kts | 143° |
| 2026-04-27 14:17 | 20.10960 | 110.05504 | 4914 ft | 255 kts | 143° |
| 2026-04-27 14:17 | 20.09585 | 110.06691 | 4905 ft | 254 kts | 143° |
| 2026-04-27 14:18 | 20.08215 | 110.07873 | 4900 ft | 253 kts | 143° |
| 2026-04-27 14:18 | 20.06847 | 110.09054 | 4841 ft | 254 kts | 143° |
| 2026-04-27 14:18 | 20.05484 | 110.10230 | 4684 ft | 249 kts | 143° |
| 2026-04-27 14:18 | 20.04197 | 110.11340 | 4530 ft | 243 kts | 143° |
| 2026-04-27 14:19 | 20.03163 | 110.12231 | 4408 ft | 239 kts | 143° |
| 2026-04-27 14:19 | 20.01866 | 110.13297 | 4228 ft | 232 kts | 153° |
| 2026-04-27 14:19 | 20.00351 | 110.13696 | 4100 ft | 222 kts | 179° |
| 2026-04-27 14:19 | 19.98831 | 110.13703 | 3972 ft | 216 kts | 181° |
| 2026-04-27 14:20 | 19.97389 | 110.13777 | 3834 ft | 206 kts | 166° |
| 2026-04-27 14:20 | 19.96288 | 110.14653 | 3670 ft | 201 kts | 122° |
| 2026-04-27 14:20 | 19.95930 | 110.16069 | 3554 ft | 196 kts | 104° |
| 2026-04-27 14:20 | 19.95698 | 110.17495 | 3395 ft | 195 kts | 102° |
| 2026-04-27 14:21 | 19.95510 | 110.18910 | 3270 ft | 192 kts | 102° |
| 2026-04-27 14:21 | 19.95377 | 110.20323 | 3119 ft | 193 kts | 97° |
| 2026-04-27 14:21 | 19.95324 | 110.21739 | 2957 ft | 189 kts | 96° |
| 2026-04-27 14:21 | 19.95311 | 110.23103 | 2906 ft | 181 kts | 95° |
| 2026-04-27 14:22 | 19.95313 | 110.24429 | 2893 ft | 178 kts | 94° |
| 2026-04-27 14:22 | 19.95323 | 110.25738 | 2898 ft | 179 kts | 95° |
| 2026-04-27 14:22 | 19.95329 | 110.27074 | 2918 ft | 181 kts | 95° |
| 2026-04-27 14:22 | 19.95333 | 110.28405 | 2879 ft | 179 kts | 94° |
| 2026-04-27 14:23 | 19.95337 | 110.29740 | 2718 ft | 183 kts | 95° |
| 2026-04-27 14:23 | 19.95338 | 110.31096 | 2482 ft | 183 kts | 95° |
| 2026-04-27 14:23 | 19.95341 | 110.32423 | 2244 ft | 175 kts | 94° |
| 2026-04-27 14:23 | 19.95346 | 110.33670 | 2068 ft | 160 kts | 95° |
| 2026-04-27 14:24 | 19.95349 | 110.34813 | 1831 ft | 149 kts | 96° |
| 2026-04-27 14:24 | 19.95349 | 110.35924 | 1645 ft | 150 kts | 96° |
| 2026-04-27 14:24 | 19.95351 | 110.37011 | 1444 ft | 148 kts | 96° |
| 2026-04-27 14:24 | 19.95354 | 110.38088 | 1254 ft | 143 kts | 95° |
| 2026-04-27 14:25 | 19.95356 | 110.39151 | 1075 ft | 146 kts | 95° |
| 2026-04-27 14:25 | 19.95358 | 110.40187 | 903 ft | 146 kts | 94° |
| 2026-04-27 14:25 | 19.95362 | 110.41264 | 711 ft | 147 kts | 92° |
| 2026-04-27 14:25 | 19.95363 | 110.42344 | 532 ft | 145 kts | 92° |
| 2026-04-27 14:26 | 19.95365 | 110.43409 | 356 ft | 143 kts | 90° |
| 2026-04-27 14:26 | 19.95376 | 110.44472 | 148 ft | 145 kts | 90° |
| 2026-04-27 14:26 | 19.95373 | 110.45525 | 57 ft | 135 kts | 90° |
| 2026-04-27 14:26 | 19.95376 | 110.46399 | 55 ft | 100 kts | 89° |
| 2026-04-27 14:27 | 19.95377 | 110.46866 | 57 ft | 46 kts | 92° |
| 2026-04-27 14:27 | 19.95326 | 110.47043 | 60 ft | 13 kts | 117° |
| 2026-04-27 14:27 | 19.95286 | 110.47125 | 60 ft | 12 kts | 121° |
| 2026-04-27 14:27 | 19.95216 | 110.47120 | 57 ft | 12 kts | 238° |
| 2026-04-27 14:28 | 19.95207 | 110.47033 | 59 ft | 12 kts | 269° |
| 2026-04-27 14:28 | 19.95207 | 110.46967 | 59 ft | 7 kts | 270° |
| 2026-04-27 14:28 | 19.95207 | 110.46914 | 59 ft | 7 kts | 270° |
| 2026-04-27 14:28 | 19.95207 | 110.46862 | 58 ft | 7 kts | 270° |
| 2026-04-27 14:29 | 19.95207 | 110.46812 | 58 ft | 7 kts | 270° |
| 2026-04-27 14:29 | 19.95207 | 110.46762 | 58 ft | 7 kts | 270° |
| 2026-04-27 14:29 | 19.95207 | 110.46714 | 58 ft | 7 kts | 270° |
| 2026-04-27 14:29 | 19.95206 | 110.46666 | 57 ft | 7 kts | 269° |
| 2026-04-27 14:30 | 19.95206 | 110.46610 | 57 ft | 8 kts | 269° |
| 2026-04-27 14:30 | 19.95205 | 110.46540 | 57 ft | 10 kts | 269° |
| 2026-04-27 14:30 | 19.95205 | 110.46460 | 57 ft | 12 kts | 270° |
| 2026-04-27 14:30 | 19.95205 | 110.46368 | 57 ft | 14 kts | 270° |
| 2026-04-27 14:31 | 19.95205 | 110.46261 | 56 ft | 16 kts | 270° |
| 2026-04-27 14:31 | 19.95204 | 110.46138 | 56 ft | 18 kts | 270° |
| 2026-04-27 14:31 | 19.95204 | 110.46001 | 56 ft | 19 kts | 270° |
| 2026-04-27 14:31 | 19.95206 | 110.45851 | 56 ft | 21 kts | 270° |
| 2026-04-27 14:32 | 19.95204 | 110.45723 | 56 ft | 17 kts | 270° |
| 2026-04-27 14:32 | 19.95204 | 110.45587 | 55 ft | 19 kts | 270° |
| 2026-04-27 14:32 | 19.95203 | 110.45438 | 54 ft | 21 kts | 269° |
| 2026-04-27 14:32 | 19.95202 | 110.45304 | 54 ft | 13 kts | 269° |
| 2026-04-27 14:33 | 19.95150 | 110.45242 | 48 ft | 8 kts | 181° |
| 2026-04-27 14:33 | 19.95090 | 110.45241 | 49 ft | 9 kts | 181° |
| 2026-04-27 14:33 | 19.95043 | 110.45242 | 50 ft | 7 kts | 179° |
| 2026-04-27 14:33 | 19.94988 | 110.45243 | 50 ft | 9 kts | 180° |
| 2026-04-27 14:34 | 19.94924 | 110.45243 | 53 ft | 10 kts | 180° |
| 2026-04-27 14:34 | 19.94854 | 110.45242 | 53 ft | 11 kts | 179° |
| 2026-04-27 14:34 | 19.94792 | 110.45279 | 55 ft | 11 kts | 137° |
| 2026-04-27 14:34 | 19.94790 | 110.45337 | 57 ft | 9 kts | 59° |
| 2026-04-27 14:35 | 19.94816 | 110.45370 | 57 ft | 6 kts | 49° |
| 2026-04-27 14:35 | 19.94823 | 110.45378 | 51 ft | 3 kts | 50° |
| 2026-04-27 14:35 | 19.94828 | 110.45385 | 52 ft | 0 kts | 50° |